sensor_id;sensor_type;location;lat;lon;timestamp;pressure;altitude;pressure_sealevel;temperature;humidity
65997;BME280;52765;52.258;21.052;2023-06-19T00:02:08;100559.72;;;17.22;100.00
65997;BME280;52765;52.258;21.052;2023-06-19T00:04:34;100560.09;;;17.19;100.00
65997;BME280;52765;52.258;21.052;2023-06-19T00:07:00;100563.28;;;17.23;100.00
65997;BME280;52765;52.258;21.052;2023-06-19T00:09:25;100552.97;;;17.18;100.00
65997;BME280;52765;52.258;21.052;2023-06-19T00:11:51;100562.88;;;17.26;100.00
65997;BME280;52765;52.258;21.052;2023-06-19T00:14:16;100572.72;;;17.27;100.00
65997;BME280;52765;52.258;21.052;2023-06-19T00:16:43;100571.63;;;17.21;100.00
65997;BME280;52765;52.258;21.052;2023-06-19T00:19:09;100572.59;;;17.13;100.00
65997;BME280;52765;52.258;21.052;2023-06-19T00:21:35;100574.50;;;17.13;100.00
65997;BME280;52765;52.258;21.052;2023-06-19T00:24:03;100585.00;;;17.16;100.00
65997;BME280;52765;52.258;21.052;2023-06-19T00:26:28;100578.09;;;17.20;100.00
65997;BME280;52765;52.258;21.052;2023-06-19T00:28:54;100583.09;;;17.16;100.00
65997;BME280;52765;52.258;21.052;2023-06-19T00:31:19;100574.75;;;17.18;100.00
65997;BME280;52765;52.258;21.052;2023-06-19T00:33:46;100581.50;;;17.22;100.00
65997;BME280;52765;52.258;21.052;2023-06-19T00:36:16;100589.84;;;17.20;100.00
65997;BME280;52765;52.258;21.052;2023-06-19T00:38:45;100573.91;;;17.17;100.00
65997;BME280;52765;52.258;21.052;2023-06-19T00:41:11;100577.22;;;17.13;100.00
65997;BME280;52765;52.258;21.052;2023-06-19T00:43:40;100577.22;;;17.13;100.00
65997;BME280;52765;52.258;21.052;2023-06-19T00:46:05;100577.84;;;17.15;100.00
65997;BME280;52765;52.258;21.052;2023-06-19T00:48:32;100570.13;;;17.18;100.00
65997;BME280;52765;52.258;21.052;2023-06-19T00:50:59;100568.47;;;17.17;100.00
65997;BME280;52765;52.258;21.052;2023-06-19T00:53:27;100578.09;;;17.20;100.00
65997;BME280;52765;52.258;21.052;2023-06-19T00:55:55;100575.56;;;17.18;100.00
65997;BME280;52765;52.258;21.052;2023-06-19T00:58:21;100574.94;;;17.16;100.00
65997;BME280;52765;52.258;21.052;2023-06-19T01:00:47;100570.06;;;17.12;100.00
65997;BME280;52765;52.258;21.052;2023-06-19T01:03:14;100577.22;;;17.13;100.00
65997;BME280;52765;52.258;21.052;2023-06-19T01:05:39;100582.19;;;17.09;100.00
65997;BME280;52765;52.258;21.052;2023-06-19T01:10:59;100568.97;;;17.06;100.00
65997;BME280;52765;52.258;21.052;2023-06-19T01:13:49;100570.00;;;17.05;100.00
65997;BME280;52765;52.258;21.052;2023-06-19T01:16:16;100568.47;;;16.96;100.00
65997;BME280;52765;52.258;21.052;2023-06-19T01:18:43;100574.94;;;16.95;100.00
65997;BME280;52765;52.258;21.052;2023-06-19T01:21:13;100575.38;;;16.98;100.00
65997;BME280;52765;52.258;21.052;2023-06-19T01:23:39;100568.84;;;16.93;100.00
65997;BME280;52765;52.258;21.052;2023-06-19T01:26:05;100566.13;;;16.93;100.00
65997;BME280;52765;52.258;21.052;2023-06-19T01:28:32;100573.91;;;16.96;100.00
65997;BME280;52765;52.258;21.052;2023-06-19T01:31:00;100573.53;;;16.99;100.00
65997;BME280;52765;52.258;21.052;2023-06-19T01:33:28;100580.81;;;16.98;100.00
65997;BME280;52765;52.258;21.052;2023-06-19T01:35:57;100576.63;;;16.96;100.00
65997;BME280;52765;52.258;21.052;2023-06-19T01:38:24;100575.38;;;16.98;100.00
65997;BME280;52765;52.258;21.052;2023-06-19T01:40:55;100568.53;;;17.02;100.00
65997;BME280;52765;52.258;21.052;2023-06-19T01:43:24;100575.56;;;16.97;100.00
65997;BME280;52765;52.258;21.052;2023-06-19T01:45:50;100576.19;;;16.92;100.00
65997;BME280;52765;52.258;21.052;2023-06-19T01:48:15;100573.91;;;16.81;100.00
65997;BME280;52765;52.258;21.052;2023-06-19T01:50:45;100576.19;;;16.77;100.00
65997;BME280;52765;52.258;21.052;2023-06-19T01:53:10;100576.94;;;16.71;100.00
65997;BME280;52765;52.258;21.052;2023-06-19T01:55:36;100572.94;;;16.67;100.00
65997;BME280;52765;52.258;21.052;2023-06-19T01:58:02;100575.66;;;16.67;100.00
65997;BME280;52765;52.258;21.052;2023-06-19T02:00:28;100579.22;;;16.68;100.00
65997;BME280;52765;52.258;21.052;2023-06-19T02:02:53;100582.13;;;16.66;100.00
65997;BME280;52765;52.258;21.052;2023-06-19T02:05:19;100579.59;;;16.64;100.00
65997;BME280;52765;52.258;21.052;2023-06-19T02:07:44;100572.44;;;16.63;100.00
65997;BME280;52765;52.258;21.052;2023-06-19T02:10:10;100568.06;;;16.62;100.00
65997;BME280;52765;52.258;21.052;2023-06-19T02:12:35;100568.06;;;16.62;100.00
65997;BME280;52765;52.258;21.052;2023-06-19T02:15:01;100567.19;;;16.62;100.00
65997;BME280;52765;52.258;21.052;2023-06-19T02:17:26;100576.78;;;16.58;100.00
65997;BME280;52765;52.258;21.052;2023-06-19T02:20:00;100580.81;;;16.62;100.00
65997;BME280;52765;52.258;21.052;2023-06-19T02:22:28;100581.22;;;16.59;100.00
65997;BME280;52765;52.258;21.052;2023-06-19T02:25:00;100574.44;;;16.55;100.00
65997;BME280;52765;52.258;21.052;2023-06-19T02:27:31;100574.44;;;16.55;100.00
65997;BME280;52765;52.258;21.052;2023-06-19T02:30:02;100582.88;;;16.60;100.00
65997;BME280;52765;52.258;21.052;2023-06-19T02:32:28;100583.66;;;16.54;100.00
65997;BME280;52765;52.258;21.052;2023-06-19T02:34:57;100588.22;;;16.53;100.00
65997;BME280;52765;52.258;21.052;2023-06-19T02:37:23;100578.13;;;16.47;100.00
65997;BME280;52765;52.258;21.052;2023-06-19T02:39:51;100582.63;;;16.40;100.00
65997;BME280;52765;52.258;21.052;2023-06-19T02:42:20;100584.34;;;16.26;100.00
65997;BME280;52765;52.258;21.052;2023-06-19T02:44:48;100580.69;;;16.19;100.00
65997;BME280;52765;52.258;21.052;2023-06-19T02:47:14;100579.84;;;16.18;100.00
65997;BME280;52765;52.258;21.052;2023-06-19T02:49:39;100585.28;;;16.18;100.00
65997;BME280;52765;52.258;21.052;2023-06-19T02:52:05;100581.91;;;16.16;100.00
65997;BME280;52765;52.258;21.052;2023-06-19T02:54:31;100587.16;;;16.18;100.00
65997;BME280;52765;52.258;21.052;2023-06-19T02:56:56;100583.78;;;16.16;100.00
65997;BME280;52765;52.258;21.052;2023-06-19T02:59:24;100592.31;;;16.13;100.00
65997;BME280;52765;52.258;21.052;2023-06-19T03:01:51;100594.19;;;16.12;100.00
65997;BME280;52765;52.258;21.052;2023-06-19T03:04:17;100595.69;;;16.15;100.00
65997;BME280;52765;52.258;21.052;2023-06-19T03:06:42;100593.78;;;16.15;100.00
65997;BME280;52765;52.258;21.052;2023-06-19T03:09:08;100602.03;;;16.22;100.00
65997;BME280;52765;52.258;21.052;2023-06-19T03:11:40;100591.47;;;16.27;100.00
65997;BME280;52765;52.258;21.052;2023-06-19T03:14:08;100595.84;;;16.28;100.00
65997;BME280;52765;52.258;21.052;2023-06-19T03:16:41;100599.41;;;16.28;100.00
65997;BME280;52765;52.258;21.052;2023-06-19T03:19:13;100600.94;;;16.31;100.00
65997;BME280;52765;52.258;21.052;2023-06-19T03:21:39;100602.81;;;16.31;100.00
65997;BME280;52765;52.258;21.052;2023-06-19T03:24:05;100608.06;;;16.32;100.00
65997;BME280;52765;52.258;21.052;2023-06-19T03:26:31;100600.09;;;16.31;100.00
65997;BME280;52765;52.258;21.052;2023-06-19T03:28:56;100599.63;;;16.27;100.00
65997;BME280;52765;52.258;21.052;2023-06-19T03:31:22;100596.22;;;16.25;100.00
65997;BME280;52765;52.258;21.052;2023-06-19T03:33:47;100603.09;;;16.21;100.00
65997;BME280;52765;52.258;21.052;2023-06-19T03:36:13;100602.03;;;16.22;100.00
65997;BME280;52765;52.258;21.052;2023-06-19T03:38:39;100604.56;;;16.23;100.00
65997;BME280;52765;52.258;21.052;2023-06-19T03:41:04;100582.38;;;16.20;100.00
65997;BME280;52765;52.258;21.052;2023-06-19T03:43:29;100594.06;;;16.20;100.00
65997;BME280;52765;52.258;21.052;2023-06-19T03:45:55;100601.28;;;16.28;100.00
65997;BME280;52765;52.258;21.052;2023-06-19T03:48:20;100585.09;;;16.20;100.00
65997;BME280;52765;52.258;21.052;2023-06-19T03:50:46;100603.38;;;16.26;100.00
65997;BME280;52765;52.258;21.052;2023-06-19T03:53:11;100604.19;;;16.26;100.00
65997;BME280;52765;52.258;21.052;2023-06-19T03:55:37;100597.75;;;16.27;100.00
65997;BME280;52765;52.258;21.052;2023-06-19T03:58:02;100592.59;;;16.33;100.00
65997;BME280;52765;52.258;21.052;2023-06-19T04:00:28;100593.41;;;16.33;100.00
65997;BME280;52765;52.258;21.052;2023-06-19T04:02:54;100593.50;;;16.40;100.00
65997;BME280;52765;52.258;21.052;2023-06-19T04:05:19;100588.53;;;16.43;100.00
65997;BME280;52765;52.258;21.052;2023-06-19T04:07:45;100586.06;;;16.49;100.00
65997;BME280;52765;52.258;21.052;2023-06-19T04:10:10;100585.06;;;16.50;100.00
65997;BME280;52765;52.258;21.052;2023-06-19T04:12:39;100599.75;;;16.55;100.00
65997;BME280;52765;52.258;21.052;2023-06-19T04:15:08;100605.00;;;16.57;100.00
65997;BME280;52765;52.258;21.052;2023-06-19T04:17:34;100604.25;;;16.63;100.00
65997;BME280;52765;52.258;21.052;2023-06-19T04:19:59;100598.91;;;16.70;100.00
65997;BME280;52765;52.258;21.052;2023-06-19T04:22:25;100598.13;;;16.76;100.00
65997;BME280;52765;52.258;21.052;2023-06-19T04:24:50;100603.66;;;16.82;100.00
65997;BME280;52765;52.258;21.052;2023-06-19T04:27:16;100606.69;;;16.88;100.00
65997;BME280;52765;52.258;21.052;2023-06-19T04:29:41;100605.44;;;16.90;100.00
65997;BME280;52765;52.258;21.052;2023-06-19T04:32:07;100606.75;;;16.94;100.00
65997;BME280;52765;52.258;21.052;2023-06-19T04:34:41;100602.47;;;17.07;100.00
65997;BME280;52765;52.258;21.052;2023-06-19T04:37:11;100611.19;;;17.17;100.00
65997;BME280;52765;52.258;21.052;2023-06-19T04:39:36;100597.78;;;17.15;100.00
65997;BME280;52765;52.258;21.052;2023-06-19T04:42:02;100598.66;;;17.23;100.00
65997;BME280;52765;52.258;21.052;2023-06-19T04:44:28;100602.47;;;17.28;100.00
65997;BME280;52765;52.258;21.052;2023-06-19T04:46:55;100591.19;;;17.31;100.00
65997;BME280;52765;52.258;21.052;2023-06-19T04:49:28;100595.69;;;17.39;100.00
65997;BME280;52765;52.258;21.052;2023-06-19T04:52:02;100597.59;;;17.45;100.00
65997;BME280;52765;52.258;21.052;2023-06-19T04:54:28;100597.47;;;17.53;100.00
65997;BME280;52765;52.258;21.052;2023-06-19T04:56:54;100600.25;;;17.60;100.00
65997;BME280;52765;52.258;21.052;2023-06-19T04:59:19;100599.22;;;17.61;99.77
65997;BME280;52765;52.258;21.052;2023-06-19T05:01:45;100599.47;;;17.66;99.52
65997;BME280;52765;52.258;21.052;2023-06-19T05:04:11;100595.94;;;17.72;99.34
65997;BME280;52765;52.258;21.052;2023-06-19T05:06:36;100601.66;;;17.78;98.38
65997;BME280;52765;52.258;21.052;2023-06-19T05:09:02;100596.41;;;17.76;98.11
65997;BME280;52765;52.258;21.052;2023-06-19T05:11:28;100602.81;;;17.90;97.67
65997;BME280;52765;52.258;21.052;2023-06-19T05:13:53;100591.56;;;18.00;97.34
65997;BME280;52765;52.258;21.052;2023-06-19T05:16:19;100596.03;;;18.07;97.04
65997;BME280;52765;52.258;21.052;2023-06-19T05:18:45;100600.06;;;18.18;96.66
65997;BME280;52765;52.258;21.052;2023-06-19T05:21:11;100600.72;;;18.20;95.89
65997;BME280;52765;52.258;21.052;2023-06-19T05:23:37;100603.91;;;18.30;95.84
65997;BME280;52765;52.258;21.052;2023-06-19T05:26:08;100602.06;;;18.38;95.22
65997;BME280;52765;52.258;21.052;2023-06-19T05:28:34;100603.97;;;18.44;95.19
65997;BME280;52765;52.258;21.052;2023-06-19T05:30:59;100612.81;;;18.53;93.59
65997;BME280;52765;52.258;21.052;2023-06-19T05:33:25;100613.69;;;18.60;93.27
65997;BME280;52765;52.258;21.052;2023-06-19T05:35:51;100615.81;;;18.64;93.05
65997;BME280;52765;52.258;21.052;2023-06-19T05:38:19;100614.97;;;18.64;92.55
65997;BME280;52765;52.258;21.052;2023-06-19T05:40:44;100613.91;;;18.65;92.42
65997;BME280;52765;52.258;21.052;2023-06-19T05:43:10;100620.25;;;18.72;92.49
65997;BME280;52765;52.258;21.052;2023-06-19T05:45:35;100626.16;;;18.76;92.02
65997;BME280;52765;52.258;21.052;2023-06-19T05:48:01;100623.41;;;18.76;91.61
65997;BME280;52765;52.258;21.052;2023-06-19T05:50:26;100618.84;;;18.83;91.23
65997;BME280;52765;52.258;21.052;2023-06-19T05:52:51;100629.19;;;18.94;90.22
65997;BME280;52765;52.258;21.052;2023-06-19T05:55:17;100640.75;;;19.03;90.10
65997;BME280;52765;52.258;21.052;2023-06-19T05:57:43;100631.75;;;19.09;89.24
65997;BME280;52765;52.258;21.052;2023-06-19T06:00:08;100641.88;;;19.22;88.68
65997;BME280;52765;52.258;21.052;2023-06-19T06:02:39;100644.59;;;19.29;87.15
65997;BME280;52765;52.258;21.052;2023-06-19T06:05:05;100649.66;;;19.38;86.46
65997;BME280;52765;52.258;21.052;2023-06-19T06:07:31;100642.53;;;19.44;86.03
65997;BME280;52765;52.258;21.052;2023-06-19T06:09:56;100651.78;;;19.56;84.46
65997;BME280;52765;52.258;21.052;2023-06-19T06:12:22;100653.69;;;19.63;83.93
65997;BME280;52765;52.258;21.052;2023-06-19T06:14:47;100662.09;;;19.68;83.51
65997;BME280;52765;52.258;21.052;2023-06-19T06:17:13;100664.66;;;19.76;83.72
65997;BME280;52765;52.258;21.052;2023-06-19T06:19:38;100666.94;;;19.72;83.39
65997;BME280;52765;52.258;21.052;2023-06-19T06:22:04;100673.47;;;19.85;82.99
65997;BME280;52765;52.258;21.052;2023-06-19T06:24:30;100672.63;;;19.91;82.65
65997;BME280;52765;52.258;21.052;2023-06-19T06:26:55;100677.69;;;19.94;81.86
65997;BME280;52765;52.258;21.052;2023-06-19T06:29:20;100678.09;;;20.04;81.02
65997;BME280;52765;52.258;21.052;2023-06-19T06:31:46;100686.09;;;20.12;80.80
65997;BME280;52765;52.258;21.052;2023-06-19T06:34:12;100681.88;;;20.17;79.71
65997;BME280;52765;52.258;21.052;2023-06-19T06:36:39;100675.75;;;20.28;78.82
65997;BME280;52765;52.258;21.052;2023-06-19T06:39:04;100674.69;;;20.36;78.01
65997;BME280;52765;52.258;21.052;2023-06-19T06:41:31;100673.88;;;20.35;76.98
65997;BME280;52765;52.258;21.052;2023-06-19T06:43:57;100676.16;;;20.38;76.83
65997;BME280;52765;52.258;21.052;2023-06-19T06:46:22;100670.66;;;20.45;76.18
65997;BME280;52765;52.258;21.052;2023-06-19T06:48:49;100672.13;;;20.54;75.95
65997;BME280;52765;52.258;21.052;2023-06-19T06:51:14;100673.38;;;20.65;76.17
65997;BME280;52765;52.258;21.052;2023-06-19T06:53:40;100680.91;;;20.76;75.59
65997;BME280;52765;52.258;21.052;2023-06-19T06:56:05;100678.56;;;20.86;74.81
65997;BME280;52765;52.258;21.052;2023-06-19T06:58:31;100668.66;;;20.92;74.67
65997;BME280;52765;52.258;21.052;2023-06-19T07:00:56;100676.63;;;21.00;74.02
65997;BME280;52765;52.258;21.052;2023-06-19T07:03:22;100682.91;;;21.07;73.72
65997;BME280;52765;52.258;21.052;2023-06-19T07:05:48;100663.91;;;21.13;73.75
65997;BME280;52765;52.258;21.052;2023-06-19T07:08:14;100667.22;;;21.21;73.63
65997;BME280;52765;52.258;21.052;2023-06-19T07:10:39;100666.13;;;21.29;73.39
65997;BME280;52765;52.258;21.052;2023-06-19T07:13:05;100664.56;;;21.40;73.06
65997;BME280;52765;52.258;21.052;2023-06-19T07:15:30;100668.34;;;21.46;72.24
65997;BME280;52765;52.258;21.052;2023-06-19T07:17:56;100659.94;;;21.47;71.73
65997;BME280;52765;52.258;21.052;2023-06-19T07:20:21;100655.28;;;21.48;70.59
65997;BME280;52765;52.258;21.052;2023-06-19T07:22:47;100662.84;;;21.52;70.26
65997;BME280;52765;52.258;21.052;2023-06-19T07:25:15;100661.28;;;21.63;70.48
65997;BME280;52765;52.258;21.052;2023-06-19T07:27:41;100660.63;;;21.68;70.02
65997;BME280;52765;52.258;21.052;2023-06-19T07:30:07;100658.44;;;21.76;68.68
65997;BME280;52765;52.258;21.052;2023-06-19T07:32:32;100662.88;;;21.77;68.28
65997;BME280;52765;52.258;21.052;2023-06-19T07:34:58;100671.66;;;21.86;67.57
65997;BME280;52765;52.258;21.052;2023-06-19T07:37:23;100662.75;;;21.91;67.38
65997;BME280;52765;52.258;21.052;2023-06-19T07:39:50;100668.41;;;21.96;66.23
65997;BME280;52765;52.258;21.052;2023-06-19T07:42:17;100660.56;;;21.99;66.06
65997;BME280;52765;52.258;21.052;2023-06-19T07:44:44;100665.88;;;21.94;65.01
65997;BME280;52765;52.258;21.052;2023-06-19T07:47:10;100669.19;;;22.03;65.16
65997;BME280;52765;52.258;21.052;2023-06-19T07:49:36;100664.50;;;22.10;64.87
65997;BME280;52765;52.258;21.052;2023-06-19T07:52:03;100662.34;;;22.12;64.33
65997;BME280;52765;52.258;21.052;2023-06-19T07:54:29;100662.78;;;22.09;64.26
65997;BME280;52765;52.258;21.052;2023-06-19T07:56:54;100661.06;;;22.15;63.62
65997;BME280;52765;52.258;21.052;2023-06-19T07:59:20;100667.56;;;22.21;63.10
65997;BME280;52765;52.258;21.052;2023-06-19T08:01:48;100668.16;;;22.23;63.27
65997;BME280;52765;52.258;21.052;2023-06-19T08:04:14;100668.31;;;22.28;63.02
65997;BME280;52765;52.258;21.052;2023-06-19T08:06:39;100673.53;;;22.36;62.80
65997;BME280;52765;52.258;21.052;2023-06-19T08:09:05;100672.03;;;22.40;61.84
65997;BME280;52765;52.258;21.052;2023-06-19T08:11:30;100673.00;;;22.46;61.04
65997;BME280;52765;52.258;21.052;2023-06-19T08:13:56;100671.50;;;22.50;60.12
65997;BME280;52765;52.258;21.052;2023-06-19T08:16:21;100666.63;;;22.52;60.13
65997;BME280;52765;52.258;21.052;2023-06-19T08:18:47;100670.44;;;22.51;59.70
65997;BME280;52765;52.258;21.052;2023-06-19T08:21:13;100673.53;;;22.54;59.36
65997;BME280;52765;52.258;21.052;2023-06-19T08:23:39;100671.97;;;22.65;59.38
65997;BME280;52765;52.258;21.052;2023-06-19T08:26:05;100664.69;;;22.71;59.08
65997;BME280;52765;52.258;21.052;2023-06-19T08:28:33;100662.97;;;22.77;59.12
65997;BME280;52765;52.258;21.052;2023-06-19T08:30:59;100651.03;;;22.83;58.63
65997;BME280;52765;52.258;21.052;2023-06-19T08:33:24;100661.38;;;22.99;58.52
65997;BME280;52765;52.258;21.052;2023-06-19T08:35:50;100653.47;;;23.09;58.19
65997;BME280;52765;52.258;21.052;2023-06-19T08:38:15;100670.84;;;23.22;57.41
65997;BME280;52765;52.258;21.052;2023-06-19T08:40:42;100656.78;;;23.30;57.35
65997;BME280;52765;52.258;21.052;2023-06-19T08:43:11;100664.38;;;23.46;57.57
65997;BME280;52765;52.258;21.052;2023-06-19T08:45:37;100658.25;;;23.56;56.94
65997;BME280;52765;52.258;21.052;2023-06-19T08:48:03;100657.69;;;23.66;56.54
65997;BME280;52765;52.258;21.052;2023-06-19T08:50:29;100656.66;;;23.79;55.59
65997;BME280;52765;52.258;21.052;2023-06-19T08:52:56;100660.84;;;23.81;54.46
65997;BME280;52765;52.258;21.052;2023-06-19T08:55:22;100662.31;;;23.84;54.41
65997;BME280;52765;52.258;21.052;2023-06-19T08:57:51;100666.00;;;23.90;53.82
65997;BME280;52765;52.258;21.052;2023-06-19T09:00:28;100656.69;;;23.91;54.33
65997;BME280;52765;52.258;21.052;2023-06-19T09:03:02;100669.16;;;24.05;53.60
65997;BME280;52765;52.258;21.052;2023-06-19T09:05:28;100673.69;;;24.11;52.91
65997;BME280;52765;52.258;21.052;2023-06-19T09:07:56;100663.16;;;24.20;52.54
65997;BME280;52765;52.258;21.052;2023-06-19T09:10:21;100654.41;;;24.11;52.57
65997;BME280;52765;52.258;21.052;2023-06-19T09:13:04;100662.44;;;24.25;51.97
65997;BME280;52765;52.258;21.052;2023-06-19T09:15:32;100659.44;;;24.26;51.47
65997;BME280;52765;52.258;21.052;2023-06-19T09:18:10;100665.19;;;24.36;51.31
65997;BME280;52765;52.258;21.052;2023-06-19T09:20:42;100662.78;;;24.40;50.04
65997;BME280;52765;52.258;21.052;2023-06-19T09:23:13;100658.13;;;24.41;50.63
65997;BME280;52765;52.258;21.052;2023-06-19T09:28:21;100658.56;;;24.49;49.88
65997;BME280;52765;52.258;21.052;2023-06-19T09:30:55;100650.19;;;24.68;49.76
65997;BME280;52765;52.258;21.052;2023-06-19T09:33:21;100661.16;;;24.80;49.71
65997;BME280;52765;52.258;21.052;2023-06-19T09:35:49;100659.13;;;24.87;50.18
65997;BME280;52765;52.258;21.052;2023-06-19T09:38:16;100658.69;;;24.66;50.15
65997;BME280;52765;52.258;21.052;2023-06-19T09:40:47;100653.78;;;24.45;50.97
65997;BME280;52765;52.258;21.052;2023-06-19T09:43:18;100649.41;;;24.32;49.83
65997;BME280;52765;52.258;21.052;2023-06-19T09:45:48;100656.81;;;24.43;47.81
65997;BME280;52765;52.258;21.052;2023-06-19T09:48:19;100656.16;;;24.53;47.25
65997;BME280;52765;52.258;21.052;2023-06-19T09:50:50;100651.19;;;24.62;46.74
65997;BME280;52765;52.258;21.052;2023-06-19T09:53:20;100667.44;;;24.75;46.57
65997;BME280;52765;52.258;21.052;2023-06-19T09:55:49;100660.66;;;24.94;46.21
65997;BME280;52765;52.258;21.052;2023-06-19T09:58:19;100657.88;;;25.06;45.49
65997;BME280;52765;52.258;21.052;2023-06-19T10:00:46;100654.97;;;25.13;45.91
65997;BME280;52765;52.258;21.052;2023-06-19T10:03:21;100653.09;;;25.02;45.83
65997;BME280;52765;52.258;21.052;2023-06-19T10:05:59;100655.28;;;24.88;46.45
65997;BME280;52765;52.258;21.052;2023-06-19T10:08:39;100656.28;;;25.10;45.41
65997;BME280;52765;52.258;21.052;2023-06-19T10:11:05;100664.34;;;25.00;44.95
65997;BME280;52765;52.258;21.052;2023-06-19T10:13:40;100654.88;;;24.96;45.04
65997;BME280;52765;52.258;21.052;2023-06-19T10:16:22;100651.34;;;25.12;43.54
65997;BME280;52765;52.258;21.052;2023-06-19T10:18:48;100648.66;;;25.29;44.28
65997;BME280;52765;52.258;21.052;2023-06-19T10:21:23;100650.78;;;25.39;43.18
65997;BME280;52765;52.258;21.052;2023-06-19T10:23:58;100648.72;;;25.46;43.72
65997;BME280;52765;52.258;21.052;2023-06-19T10:26:32;100647.88;;;25.63;42.44
65997;BME280;52765;52.258;21.052;2023-06-19T10:28:57;100651.72;;;25.79;42.00
65997;BME280;52765;52.258;21.052;2023-06-19T10:31:23;100638.59;;;25.86;41.27
65997;BME280;52765;52.258;21.052;2023-06-19T10:33:50;100642.22;;;26.03;41.75
65997;BME280;52765;52.258;21.052;2023-06-19T10:36:21;100640.06;;;26.28;41.28
65997;BME280;52765;52.258;21.052;2023-06-19T10:38:51;100633.59;;;26.39;40.89
65997;BME280;52765;52.258;21.052;2023-06-19T10:41:21;100638.00;;;26.57;40.50
65997;BME280;52765;52.258;21.052;2023-06-19T10:43:59;100633.78;;;26.71;40.21
65997;BME280;52765;52.258;21.052;2023-06-19T10:46:29;100633.06;;;26.81;40.29
65997;BME280;52765;52.258;21.052;2023-06-19T10:48:55;100631.81;;;26.94;39.88
65997;BME280;52765;52.258;21.052;2023-06-19T10:51:27;100639.66;;;27.02;39.80
65997;BME280;52765;52.258;21.052;2023-06-19T10:53:54;100627.31;;;27.10;39.52
65997;BME280;52765;52.258;21.052;2023-06-19T10:56:23;100629.88;;;27.17;39.90
65997;BME280;52765;52.258;21.052;2023-06-19T10:59:10;100637.34;;;26.94;39.64
65997;BME280;52765;52.258;21.052;2023-06-19T11:02:01;100636.84;;;26.97;39.71
65997;BME280;52765;52.258;21.052;2023-06-19T11:04:31;100643.66;;;27.11;39.01
65997;BME280;52765;52.258;21.052;2023-06-19T11:06:56;100639.81;;;26.68;39.01
65997;BME280;52765;52.258;21.052;2023-06-19T11:09:24;100633.53;;;26.34;39.68
65997;BME280;52765;52.258;21.052;2023-06-19T11:11:51;100628.06;;;26.17;39.75
65997;BME280;52765;52.258;21.052;2023-06-19T11:14:22;100630.69;;;26.07;40.02
65997;BME280;52765;52.258;21.052;2023-06-19T11:16:48;100635.81;;;26.59;39.91
65997;BME280;52765;52.258;21.052;2023-06-19T11:19:16;100628.50;;;26.92;38.93
65997;BME280;52765;52.258;21.052;2023-06-19T11:21:45;100622.44;;;27.49;38.56
65997;BME280;52765;52.258;21.052;2023-06-19T11:24:16;100615.53;;;27.84;38.11
65997;BME280;52765;52.258;21.052;2023-06-19T11:26:48;100616.34;;;28.22;37.44
65997;BME280;52765;52.258;21.052;2023-06-19T11:29:25;100608.19;;;28.43;37.02
65997;BME280;52765;52.258;21.052;2023-06-19T11:31:53;100609.94;;;28.59;36.70
65997;BME280;52765;52.258;21.052;2023-06-19T11:34:30;100606.00;;;28.55;36.24
65997;BME280;52765;52.258;21.052;2023-06-19T11:36:56;100606.59;;;28.63;35.53
65997;BME280;52765;52.258;21.052;2023-06-19T11:39:24;100613.34;;;28.92;35.13
65997;BME280;52765;52.258;21.052;2023-06-19T11:41:53;100610.03;;;29.01;34.90
65997;BME280;52765;52.258;21.052;2023-06-19T11:44:21;100602.00;;;28.94;35.19
65997;BME280;52765;52.258;21.052;2023-06-19T11:46:50;100599.50;;;28.97;35.65
65997;BME280;52765;52.258;21.052;2023-06-19T11:49:24;100605.06;;;29.03;35.18
65997;BME280;52765;52.258;21.052;2023-06-19T11:51:52;100601.31;;;28.61;35.55
65997;BME280;52765;52.258;21.052;2023-06-19T11:54:18;100603.63;;;28.21;36.40
65997;BME280;52765;52.258;21.052;2023-06-19T11:56:46;100598.56;;;28.61;35.74
65997;BME280;52765;52.258;21.052;2023-06-19T11:59:15;100600.66;;;28.33;36.06
65997;BME280;52765;52.258;21.052;2023-06-19T12:01:40;100585.84;;;28.65;35.73
65997;BME280;52765;52.258;21.052;2023-06-19T12:04:06;100584.00;;;29.12;35.88
65997;BME280;52765;52.258;21.052;2023-06-19T12:06:32;100579.59;;;29.62;35.89
65997;BME280;52765;52.258;21.052;2023-06-19T12:08:57;100589.53;;;30.20;34.76
65997;BME280;52765;52.258;21.052;2023-06-19T12:11:23;100591.66;;;30.49;34.12
65997;BME280;52765;52.258;21.052;2023-06-19T12:13:50;100593.25;;;30.70;33.49
65997;BME280;52765;52.258;21.052;2023-06-19T12:16:16;100590.69;;;30.79;32.87
65997;BME280;52765;52.258;21.052;2023-06-19T12:18:42;100593.88;;;30.52;33.44
65997;BME280;52765;52.258;21.052;2023-06-19T12:21:08;100593.94;;;30.21;33.88
65997;BME280;52765;52.258;21.052;2023-06-19T12:23:42;100585.88;;;30.30;33.97
65997;BME280;52765;52.258;21.052;2023-06-19T12:26:10;100588.78;;;29.78;34.33
65997;BME280;52765;52.258;21.052;2023-06-19T12:28:36;100586.22;;;29.15;34.81
65997;BME280;52765;52.258;21.052;2023-06-19T12:31:01;100593.63;;;28.78;35.54
65997;BME280;52765;52.258;21.052;2023-06-19T12:33:31;100581.59;;;28.47;36.03
65997;BME280;52765;52.258;21.052;2023-06-19T12:35:58;100587.56;;;28.23;36.38
65997;BME280;52765;52.258;21.052;2023-06-19T12:38:24;100591.25;;;27.92;37.13
65997;BME280;52765;52.258;21.052;2023-06-19T12:40:49;100592.53;;;27.41;37.98
65997;BME280;52765;52.258;21.052;2023-06-19T12:43:17;100582.78;;;27.06;39.26